createdAt,value
2023-01-11T00:00:32.845Z,100387.06
2023-01-11T00:03:34.573Z,100396.41
2023-01-11T00:06:36.214Z,100401.28
2023-01-11T00:09:37.881Z,100402.78
2023-01-11T00:12:39.529Z,100405.16
2023-01-11T00:15:41.310Z,100398.03
2023-01-11T00:18:43.238Z,100401.62
2023-01-11T00:21:44.935Z,100409.06
2023-01-11T00:24:46.517Z,100416.59
2023-01-11T00:27:49.622Z,100425.22
2023-01-11T00:30:51.316Z,100431.09
2023-01-11T00:33:53.075Z,100437.81
2023-01-11T00:36:54.706Z,100434.53
2023-01-11T00:39:56.379Z,100431.34
2023-01-11T00:43:17.000Z,100432.38
2023-01-11T00:46:47.823Z,100435.72
2023-01-11T00:49:49.501Z,100441.66
2023-01-11T00:52:51.391Z,100431.09
2023-01-11T00:55:53.008Z,100419.72
2023-01-11T00:58:54.616Z,100416.31
2023-01-11T01:01:56.215Z,100414.38
2023-01-11T01:04:58.054Z,100414.97
2023-01-11T01:08:00.209Z,100416.72
2023-01-11T01:11:02.018Z,100437.56
2023-01-11T01:14:22.571Z,100444.94
2023-01-11T01:17:25.241Z,100454.47
2023-01-11T01:20:27.123Z,100472.50
2023-01-11T01:23:29.800Z,100474.50
2023-01-11T01:26:31.613Z,100462.28
2023-01-11T01:29:33.275Z,100463.97
2023-01-11T01:32:34.928Z,100467.03
2023-01-11T01:35:38.248Z,100464.97
2023-01-11T01:38:40.049Z,100460.53
2023-01-11T01:41:41.848Z,100463.69
2023-01-11T01:45:26.556Z,100479.03
2023-01-11T01:48:28.426Z,100469.03
2023-01-11T01:51:43.866Z,100475.69
2023-01-11T01:54:48.401Z,100477.37
2023-01-11T01:57:51.538Z,100482.44
2023-01-11T02:00:53.535Z,100486.97
2023-01-11T02:03:55.617Z,100482.62
2023-01-11T02:07:02.827Z,100477.87
2023-01-11T02:10:04.782Z,100477.28
2023-01-11T02:13:10.635Z,100478.78
2023-01-11T02:16:12.419Z,100486.59
2023-01-11T02:19:31.406Z,100494.44
2023-01-11T02:23:10.039Z,100486.00
2023-01-11T02:26:33.417Z,100473.50
2023-01-11T02:30:03.351Z,100470.22
2023-01-11T02:33:42.081Z,100464.19
2023-01-11T02:36:54.933Z,100472.13
2023-01-11T02:40:06.883Z,100472.81
2023-01-11T02:43:36.272Z,100461.59
2023-01-11T02:46:58.452Z,100463.59
2023-01-11T02:50:10.709Z,100452.31
2023-01-11T02:53:33.759Z,100442.00
2023-01-11T02:56:42.007Z,100430.69
2023-01-11T02:59:49.074Z,100421.59
2023-01-11T03:03:13.892Z,100418.94
2023-01-11T03:06:43.182Z,100427.16
2023-01-11T03:10:05.117Z,100431.44
2023-01-11T03:13:30.010Z,100448.88
2023-01-11T03:16:48.530Z,100467.09
2023-01-11T03:19:55.698Z,100474.28
2023-01-11T03:23:10.869Z,100463.81
2023-01-11T03:26:29.616Z,100459.16
2023-01-11T03:29:47.037Z,100470.25
2023-01-11T03:32:54.759Z,100464.81
2023-01-11T03:36:38.889Z,100470.47
2023-01-11T03:39:56.692Z,100482.44
2023-01-11T03:43:13.347Z,100491.97
2023-01-11T03:46:38.697Z,100493.12
2023-01-11T03:49:53.379Z,100493.75
2023-01-11T03:52:57.549Z,100507.81
2023-01-11T03:56:00.767Z,100497.59
2023-01-11T03:59:03.791Z,100498.41
2023-01-11T04:02:14.280Z,100508.09
2023-01-11T04:05:16.228Z,100521.19
2023-01-11T04:08:17.898Z,100526.09
2023-01-11T04:11:19.711Z,100536.72
2023-01-11T04:14:21.355Z,100547.12
2023-01-11T04:17:23.238Z,100550.56
2023-01-11T04:20:25.078Z,100557.03
2023-01-11T04:23:27.714Z,100548.22
2023-01-11T04:26:30.343Z,100539.59
2023-01-11T04:29:32.055Z,100535.56
2023-01-11T04:32:33.858Z,100552.47
2023-01-11T04:35:35.503Z,100545.22
2023-01-11T04:38:37.356Z,100540.19
2023-01-11T04:41:58.996Z,100541.87
2023-01-11T04:45:00.669Z,100526.09
2023-01-11T04:48:02.357Z,100530.28
2023-01-11T04:51:04.298Z,100533.34
2023-01-11T04:54:06.415Z,100531.16
2023-01-11T04:57:13.316Z,100521.25
2023-01-11T05:00:16.082Z,100529.38
2023-01-11T05:03:17.802Z,100529.88
2023-01-11T05:06:24.341Z,100531.22
2023-01-11T05:09:27.099Z,100534.72
2023-01-11T05:12:28.835Z,100527.88
2023-01-11T05:15:30.506Z,100528.66
2023-01-11T05:18:32.225Z,100539.06
2023-01-11T05:21:36.210Z,100540.88
2023-01-11T05:24:37.903Z,100543.22
2023-01-11T05:27:39.846Z,100541.94
2023-01-11T05:30:41.660Z,100549.19
2023-01-11T05:33:43.637Z,100543.53
2023-01-11T05:36:45.489Z,100534.44
2023-01-11T05:39:48.220Z,100538.56
2023-01-11T05:42:49.914Z,100541.34
2023-01-11T05:45:51.854Z,100539.69
2023-01-11T05:48:55.635Z,100540.06
2023-01-11T05:51:58.371Z,100554.75
2023-01-11T05:55:00.044Z,100551.78
2023-01-11T05:58:01.792Z,100550.81
2023-01-11T06:01:03.878Z,100556.81
2023-01-11T06:04:05.696Z,100563.28
2023-01-11T06:07:09.910Z,100556.84
2023-01-11T06:10:11.687Z,100562.59
2023-01-11T06:13:29.060Z,100577.75
2023-01-11T06:16:30.858Z,100568.03
2023-01-11T06:19:32.635Z,100569.81
2023-01-11T06:22:34.321Z,100573.47
2023-01-11T06:25:37.630Z,100571.50
2023-01-11T06:28:40.483Z,100574.78
2023-01-11T06:31:42.229Z,100572.06
2023-01-11T06:34:43.929Z,100583.47
2023-01-11T06:37:45.753Z,100590.09
2023-01-11T06:41:01.471Z,100588.34
2023-01-11T06:44:03.216Z,100584.16
2023-01-11T06:47:05.943Z,100584.88
2023-01-11T06:50:08.380Z,100589.91
2023-01-11T06:53:10.082Z,100586.47
2023-01-11T06:56:16.604Z,100599.34
2023-01-11T06:59:18.314Z,100600.53
2023-01-11T07:02:20.079Z,100603.88
2023-01-11T07:05:22.014Z,100598.25
2023-01-11T07:08:27.692Z,100598.94
2023-01-11T07:11:31.696Z,100617.97
2023-01-11T07:14:34.485Z,100609.56
2023-01-11T07:17:36.821Z,100613.63
2023-01-11T07:20:38.648Z,100616.50
2023-01-11T07:23:40.444Z,100622.44
2023-01-11T07:26:42.284Z,100623.34
2023-01-11T07:29:44.112Z,100629.97
2023-01-11T07:32:45.814Z,100624.50
2023-01-11T07:35:49.509Z,100626.03
2023-01-11T07:38:51.212Z,100624.31
2023-01-11T07:42:12.028Z,100621.72
2023-01-11T07:45:15.343Z,100635.62
2023-01-11T07:48:25.100Z,100633.66
2023-01-11T07:51:27.037Z,100637.22
2023-01-11T07:54:28.802Z,100644.97
2023-01-11T07:57:30.821Z,100650.13
2023-01-11T08:00:33.666Z,100646.84
2023-01-11T08:03:35.546Z,100641.00
2023-01-11T08:06:37.799Z,100639.00
2023-01-11T08:09:39.519Z,100640.00
2023-01-11T08:13:04.922Z,100647.44
2023-01-11T08:16:06.883Z,100641.19
2023-01-11T08:19:08.673Z,100646.25
2023-01-11T08:22:10.735Z,100650.81
2023-01-11T08:25:13.001Z,100650.44
2023-01-11T08:28:14.764Z,100647.34
2023-01-11T08:31:17.058Z,100646.94
2023-01-11T08:34:18.844Z,100647.69
2023-01-11T08:37:20.566Z,100645.19
2023-01-11T08:40:25.571Z,100648.78
2023-01-11T08:43:28.347Z,100653.63
2023-01-11T08:46:30.146Z,100652.69
2023-01-11T08:49:31.909Z,100647.50
2023-01-11T08:52:33.845Z,100655.91
2023-01-11T08:55:35.509Z,100668.22
2023-01-11T08:58:37.289Z,100664.37
2023-01-11T09:01:39.425Z,100677.09
2023-01-11T09:04:42.003Z,100680.66
2023-01-11T09:07:43.700Z,100684.22
2023-01-11T09:10:45.420Z,100690.44
2023-01-11T09:13:47.142Z,100691.06
2023-01-11T09:16:48.939Z,100702.41
2023-01-11T09:19:50.702Z,100695.34
2023-01-11T09:22:53.416Z,100693.78
2023-01-11T09:25:55.814Z,100689.88
2023-01-11T09:28:58.540Z,100681.78
2023-01-11T09:32:00.294Z,100685.25
2023-01-11T09:35:03.642Z,100693.09
2023-01-11T09:38:05.352Z,100676.88
2023-01-11T09:41:23.252Z,100689.53
2023-01-11T09:44:27.246Z,100682.50
2023-01-11T09:47:33.105Z,100681.50
2023-01-11T09:50:41.252Z,100671.53
2023-01-11T09:53:50.365Z,100664.63
2023-01-11T09:57:10.600Z,100668.06
2023-01-11T10:00:35.626Z,100678.41
2023-01-11T10:03:59.986Z,100675.25
2023-01-11T10:07:38.040Z,100684.91
2023-01-11T10:18:31.996Z,100668.22
2023-01-11T10:18:42.885Z,100663.50
2023-01-11T10:21:53.465Z,100670.87
2023-01-11T10:25:05.549Z,100662.28
2023-01-11T10:28:20.195Z,100654.37
2023-01-11T10:31:44.936Z,100660.03
2023-01-11T10:35:05.608Z,100661.09
2023-01-11T10:38:34.157Z,100657.19
2023-01-11T10:41:45.231Z,100654.03
2023-01-11T10:44:55.968Z,100660.28
2023-01-11T10:48:05.817Z,100664.97
2023-01-11T10:51:25.403Z,100668.22
2023-01-11T10:54:33.288Z,100665.75
2023-01-11T10:58:01.460Z,100671.56
2023-01-11T11:01:24.518Z,100665.75
2023-01-11T11:04:26.194Z,100672.28
2023-01-11T11:07:38.129Z,100665.22
2023-01-11T11:10:56.928Z,100658.91
2023-01-11T11:14:07.556Z,100657.66
2023-01-11T11:17:26.374Z,100663.09
2023-01-11T11:20:32.936Z,100654.56
2023-01-11T11:23:35.218Z,100651.06
2023-01-11T11:26:45.119Z,100647.00
2023-01-11T11:29:52.811Z,100647.50
2023-01-11T11:33:06.116Z,100646.84
2023-01-11T11:36:14.028Z,100639.56
2023-01-11T11:39:32.614Z,100631.69
2023-01-11T11:42:35.327Z,100637.91
2023-01-11T11:45:37.115Z,100640.66
2023-01-11T11:48:38.833Z,100644.06
2023-01-11T11:51:42.903Z,100650.66
2023-01-11T11:54:56.801Z,100648.44
2023-01-11T11:58:08.660Z,100642.12
2023-01-11T12:01:29.893Z,100648.00
2023-01-11T12:04:48.812Z,100641.22
2023-01-11T12:07:55.785Z,100648.06
2023-01-11T12:11:05.743Z,100639.19
2023-01-11T12:14:39.582Z,100644.97
2023-01-11T12:17:41.891Z,100643.75
2023-01-11T12:20:44.805Z,100655.38
2023-01-11T12:23:47.676Z,100643.94
2023-01-11T12:26:55.544Z,100649.19
2023-01-11T12:30:10.020Z,100642.09
2023-01-11T12:33:33.227Z,100651.78
2023-01-11T12:36:51.326Z,100643.56
2023-01-11T12:40:11.302Z,100651.28
2023-01-11T12:43:27.950Z,100647.19
2023-01-11T12:46:43.225Z,100643.81
2023-01-11T12:50:06.518Z,100632.22
2023-01-11T12:53:17.015Z,100625.75
2023-01-11T12:56:21.484Z,100621.47
2023-01-11T12:59:52.923Z,100628.59
2023-01-11T13:03:22.773Z,100623.22
2023-01-11T13:06:37.031Z,100623.37
2023-01-11T13:09:56.594Z,100635.75
2023-01-11T13:13:24.140Z,100629.59
2023-01-11T13:16:42.940Z,100632.69
2023-01-11T13:20:06.175Z,100627.63
2023-01-11T13:23:19.019Z,100626.87
2023-01-11T13:26:21.008Z,100622.59
2023-01-11T13:29:39.609Z,100623.78
2023-01-11T13:32:46.164Z,100626.00
2023-01-11T13:35:51.774Z,100633.66
2023-01-11T13:53:03.663Z,100637.59
2023-01-11T13:56:15.803Z,100637.59
2023-01-11T13:59:26.722Z,100645.62
2023-01-11T14:02:46.532Z,100655.38
2023-01-11T14:06:13.415Z,100644.28
2023-01-11T14:09:26.914Z,100658.22
2023-01-11T14:12:53.130Z,100651.47
2023-01-11T14:16:05.369Z,100653.72
2023-01-11T14:19:13.250Z,100661.47
2023-01-11T14:22:45.417Z,100662.16
2023-01-11T14:26:02.292Z,100645.09
2023-01-11T14:29:29.195Z,100643.91
2023-01-11T14:33:01.367Z,100647.69
2023-01-11T14:36:11.766Z,100645.78
2023-01-11T14:39:32.366Z,100643.53
2023-01-11T14:42:35.708Z,100643.44
2023-01-11T14:46:16.405Z,100644.53
2023-01-11T14:49:39.186Z,100647.94
2023-01-11T14:52:43.627Z,100654.37
2023-01-11T14:55:45.384Z,100658.53
2023-01-11T14:59:04.283Z,100661.19
2023-01-11T15:02:05.961Z,100669.59
2023-01-11T15:05:08.907Z,100673.19
2023-01-11T15:08:13.690Z,100672.31
2023-01-11T15:11:31.661Z,100684.03
2023-01-11T15:14:33.924Z,100681.06
2023-01-11T15:17:54.145Z,100677.25
2023-01-11T15:21:06.359Z,100674.78
2023-01-11T15:24:22.003Z,100659.12
2023-01-11T15:27:35.721Z,100657.47
2023-01-11T15:30:39.391Z,100661.50
2023-01-11T15:33:49.084Z,100660.97
2023-01-11T15:37:08.547Z,100658.66
2023-01-11T15:40:40.126Z,100662.53
2023-01-11T15:43:54.034Z,100673.50
2023-01-11T15:47:01.875Z,100678.84
2023-01-11T15:50:18.653Z,100679.38
2023-01-11T15:53:20.314Z,100683.41
2023-01-11T15:56:37.409Z,100679.81
2023-01-11T15:59:45.251Z,100665.75
2023-01-11T16:03:16.105Z,100669.09
2023-01-11T16:06:35.249Z,100674.28
2023-01-11T16:09:52.262Z,100668.56
2023-01-11T16:13:03.971Z,100668.53
2023-01-11T16:16:29.164Z,100663.19
2023-01-11T16:19:39.851Z,100667.91
2023-01-11T16:22:41.729Z,100673.09
2023-01-11T16:25:43.493Z,100661.31
2023-01-11T16:28:58.890Z,100668.19
2023-01-11T16:32:18.470Z,100658.81
2023-01-11T16:35:25.201Z,100653.06
2023-01-11T16:38:28.015Z,100661.97
2023-01-11T16:41:38.430Z,100652.19
2023-01-11T16:44:46.030Z,100660.31
2023-01-11T16:48:02.794Z,100663.78
2023-01-11T16:51:08.748Z,100660.59
2023-01-11T16:54:16.878Z,100675.84
2023-01-11T16:57:18.785Z,100670.09
2023-01-11T17:00:35.767Z,100666.78
2023-01-11T17:03:47.668Z,100667.66
2023-01-11T17:06:49.342Z,100667.94
2023-01-11T17:09:51.210Z,100672.09
2023-01-11T17:13:49.457Z,100673.19
2023-01-11T17:17:00.054Z,100685.88
2023-01-11T17:20:02.299Z,100682.03
2023-01-11T17:23:05.152Z,100685.91
2023-01-11T17:26:14.458Z,100686.78
2023-01-11T17:29:40.131Z,100694.25
2023-01-11T17:32:46.077Z,100708.25
2023-01-11T17:35:48.012Z,100703.00
2023-01-11T17:38:49.827Z,100698.50
2023-01-11T17:42:10.495Z,100705.84
2023-01-11T17:45:21.414Z,100703.66
2023-01-11T17:48:23.396Z,100709.03
2023-01-11T17:51:27.168Z,100703.66
2023-01-11T17:54:30.425Z,100700.06
2023-01-11T17:57:32.413Z,100708.44
2023-01-11T18:00:34.370Z,100701.37
2023-01-11T18:03:51.483Z,100700.38
2023-01-11T18:06:56.307Z,100704.22
2023-01-11T18:10:01.553Z,100712.19
2023-01-11T18:13:04.844Z,100714.72
2023-01-11T18:16:06.948Z,100714.41
2023-01-11T18:19:32.828Z,100719.94
2023-01-11T18:22:37.401Z,100724.75
2023-01-11T18:25:40.572Z,100732.28
2023-01-11T18:28:43.823Z,100725.72
2023-01-11T18:31:45.885Z,100731.66
2023-01-11T18:34:51.038Z,100730.97
2023-01-11T18:37:53.150Z,100723.16
2023-01-11T18:40:56.462Z,100730.66
2023-01-11T18:43:58.619Z,100735.16
2023-01-11T18:47:02.203Z,100736.09
2023-01-11T18:50:04.999Z,100741.22
2023-01-11T18:53:09.849Z,100741.63
2023-01-11T18:56:11.756Z,100740.06
2023-01-11T18:59:14.057Z,100745.47
2023-01-11T19:02:21.674Z,100746.09
2023-01-11T19:05:23.978Z,100739.63
2023-01-11T19:08:25.949Z,100737.31
2023-01-11T19:11:30.975Z,100738.78
2023-01-11T19:14:33.635Z,100742.69
2023-01-11T19:17:35.758Z,100734.63
2023-01-11T19:20:37.820Z,100733.66
2023-01-11T19:23:40.340Z,100736.03
2023-01-11T19:26:42.615Z,100741.03
2023-01-11T19:29:44.977Z,100746.16
2023-01-11T19:32:54.344Z,100743.59
2023-01-11T19:35:56.588Z,100745.69
2023-01-11T19:38:59.821Z,100751.53
2023-01-11T19:42:03.032Z,100762.84
2023-01-11T19:45:06.253Z,100771.91
2023-01-11T19:48:08.565Z,100763.41
2023-01-11T19:51:12.492Z,100768.97
2023-01-11T19:54:17.471Z,100770.44
2023-01-11T19:57:20.888Z,100757.56
2023-01-11T20:00:23.113Z,100763.19
2023-01-11T20:03:25.897Z,100771.91
2023-01-11T20:06:27.838Z,100778.38
2023-01-11T20:09:29.789Z,100781.19
2023-01-11T20:12:31.661Z,100788.12
2023-01-11T20:15:33.610Z,100789.81
2023-01-11T20:18:37.780Z,100786.19
2023-01-11T20:21:40.195Z,100799.84
2023-01-11T20:24:43.342Z,100802.06
2023-01-11T20:27:45.378Z,100809.91
2023-01-11T20:30:47.706Z,100803.09
2023-01-11T20:33:52.699Z,100806.81
2023-01-11T20:36:54.589Z,100807.59
2023-01-11T20:39:56.967Z,100806.00
2023-01-11T20:42:59.185Z,100816.94
2023-01-11T20:46:01.414Z,100813.94
2023-01-11T20:49:04.751Z,100821.50
2023-01-11T20:52:06.940Z,100813.97
2023-01-11T20:55:09.593Z,100816.00
2023-01-11T20:58:11.426Z,100822.44
2023-01-11T21:01:13.693Z,100813.16
2023-01-11T21:04:16.901Z,100812.28
2023-01-11T21:07:18.571Z,100812.59
2023-01-11T21:10:20.274Z,100808.88
2023-01-11T21:13:22.010Z,100813.47
2023-01-11T21:16:25.380Z,100807.19
2023-01-11T21:19:27.157Z,100811.97
2023-01-11T21:22:29.889Z,100811.97
2023-01-11T21:25:33.798Z,100811.69
2023-01-11T21:28:35.517Z,100799.59
2023-01-11T21:31:38.113Z,100803.66
2023-01-11T21:34:39.761Z,100806.87
2023-01-11T21:37:41.538Z,100810.63
2023-01-11T21:40:43.205Z,100806.47
2023-01-11T21:43:45.489Z,100809.41
2023-01-11T21:46:47.721Z,100811.41
2023-01-11T21:49:49.487Z,100803.25
2023-01-11T21:52:54.251Z,100799.50
2023-01-11T21:55:56.577Z,100792.66
2023-01-11T21:58:58.422Z,100794.56
2023-01-11T22:02:00.177Z,100790.78
2023-01-11T22:08:55.872Z,100796.06
2023-01-11T22:12:09.937Z,100800.44
2023-01-11T22:15:11.752Z,100796.19
2023-01-11T22:18:15.546Z,100796.66
2023-01-11T22:21:26.959Z,100806.81
2023-01-11T22:24:30.701Z,100811.44
2023-01-11T22:27:33.463Z,100814.44
2023-01-11T22:30:51.301Z,100809.16
2023-01-11T22:34:13.868Z,100814.91
2023-01-11T22:37:21.459Z,100812.63
2023-01-11T22:40:29.359Z,100824.22
2023-01-11T22:43:32.272Z,100816.63
2023-01-11T22:47:04.086Z,100822.84
2023-01-11T22:50:19.818Z,100830.03
2023-01-11T22:53:21.815Z,100836.53
2023-01-11T22:56:26.597Z,100830.81
2023-01-11T22:59:38.149Z,100824.53
2023-01-11T23:06:40.529Z,100814.06
2023-01-11T23:09:52.342Z,100818.22
2023-01-11T23:13:13.464Z,100806.78
2023-01-11T23:17:07.057Z,100815.16
2023-01-11T23:20:12.364Z,100822.94
2023-01-11T23:23:15.423Z,100825.19
2023-01-11T23:26:22.122Z,100817.19
2023-01-11T23:29:32.767Z,100831.69
2023-01-11T23:32:49.759Z,100819.47
2023-01-11T23:35:59.148Z,100821.88
2023-01-11T23:39:10.284Z,100832.28
2023-01-11T23:42:27.119Z,100837.84
2023-01-11T23:45:37.099Z,100840.69
2023-01-11T23:48:51.797Z,100838.69
2023-01-11T23:52:06.439Z,100839.88
2023-01-11T23:55:15.256Z,100848.38
2023-01-11T23:58:39.982Z,100851.56
